sensor_id;sensor_type;location;lat;lon;timestamp;P1;durP1;ratioP1;P2;durP2;ratioP2
55212;SDS011;41083;52.932;6.674;2023-04-24T00:00:13;0.65;;;0.20;;
55212;SDS011;41083;52.932;6.674;2023-04-24T00:02:40;0.22;;;0.20;;
55212;SDS011;41083;52.932;6.674;2023-04-24T00:05:13;6.30;;;0.40;;
55212;SDS011;41083;52.932;6.674;2023-04-24T00:07:40;0.50;;;0.40;;
55212;SDS011;41083;52.932;6.674;2023-04-24T00:10:06;0.43;;;0.30;;
55212;SDS011;41083;52.932;6.674;2023-04-24T00:12:33;0.28;;;0.25;;
55212;SDS011;41083;52.932;6.674;2023-04-24T00:14:58;0.50;;;0.30;;
55212;SDS011;41083;52.932;6.674;2023-04-24T00:17:24;0.47;;;0.30;;
55212;SDS011;41083;52.932;6.674;2023-04-24T00:19:50;0.50;;;0.30;;
55212;SDS011;41083;52.932;6.674;2023-04-24T00:22:16;0.70;;;0.35;;
55212;SDS011;41083;52.932;6.674;2023-04-24T00:24:42;0.45;;;0.30;;
55212;SDS011;41083;52.932;6.674;2023-04-24T00:27:08;0.80;;;0.40;;
55212;SDS011;41083;52.932;6.674;2023-04-24T00:29:34;0.90;;;0.40;;
55212;SDS011;41083;52.932;6.674;2023-04-24T00:31:59;0.60;;;0.45;;
55212;SDS011;41083;52.932;6.674;2023-04-24T00:34:25;0.55;;;0.30;;
55212;SDS011;41083;52.932;6.674;2023-04-24T00:36:51;0.47;;;0.40;;
55212;SDS011;41083;52.932;6.674;2023-04-24T00:39:20;0.95;;;0.50;;
55212;SDS011;41083;52.932;6.674;2023-04-24T00:41:46;0.50;;;0.40;;
55212;SDS011;41083;52.932;6.674;2023-04-24T00:44:13;0.98;;;0.50;;
55212;SDS011;41083;52.932;6.674;2023-04-24T00:46:39;0.80;;;0.60;;
55212;SDS011;41083;52.932;6.674;2023-04-24T00:49:05;0.85;;;0.55;;
55212;SDS011;41083;52.932;6.674;2023-04-24T00:51:31;0.77;;;0.50;;
55212;SDS011;41083;52.932;6.674;2023-04-24T00:53:58;1.13;;;0.60;;
55212;SDS011;41083;52.932;6.674;2023-04-24T00:56:24;1.20;;;0.70;;
55212;SDS011;41083;52.932;6.674;2023-04-24T00:58:50;0.60;;;0.40;;
55212;SDS011;41083;52.932;6.674;2023-04-24T01:01:16;1.33;;;0.77;;
55212;SDS011;41083;52.932;6.674;2023-04-24T01:03:45;1.17;;;0.57;;
55212;SDS011;41083;52.932;6.674;2023-04-24T01:06:11;1.02;;;0.60;;
55212;SDS011;41083;52.932;6.674;2023-04-24T01:08:38;1.27;;;0.60;;
55212;SDS011;41083;52.932;6.674;2023-04-24T01:11:04;1.25;;;0.70;;
55212;SDS011;41083;52.932;6.674;2023-04-24T01:13:31;1.48;;;0.75;;
55212;SDS011;41083;52.932;6.674;2023-04-24T01:15:57;1.35;;;0.75;;
55212;SDS011;41083;52.932;6.674;2023-04-24T01:18:23;1.42;;;0.75;;
55212;SDS011;41083;52.932;6.674;2023-04-24T01:20:50;1.85;;;0.80;;
55212;SDS011;41083;52.932;6.674;2023-04-24T01:23:18;1.45;;;0.80;;
55212;SDS011;41083;52.932;6.674;2023-04-24T01:25:43;1.80;;;0.90;;
55212;SDS011;41083;52.932;6.674;2023-04-24T01:28:09;1.58;;;0.80;;
55212;SDS011;41083;52.932;6.674;2023-04-24T01:30:35;1.30;;;0.80;;
55212;SDS011;41083;52.932;6.674;2023-04-24T01:33:01;1.48;;;0.80;;
55212;SDS011;41083;52.932;6.674;2023-04-24T01:35:27;1.73;;;1.08;;
55212;SDS011;41083;52.932;6.674;2023-04-24T01:37:53;2.40;;;1.10;;
55212;SDS011;41083;52.932;6.674;2023-04-24T01:40:19;2.83;;;1.20;;
55212;SDS011;41083;52.932;6.674;2023-04-24T01:42:44;2.72;;;1.30;;
55212;SDS011;41083;52.932;6.674;2023-04-24T01:45:11;2.00;;;0.90;;
55212;SDS011;41083;52.932;6.674;2023-04-24T01:47:37;3.08;;;1.20;;
55212;SDS011;41083;52.932;6.674;2023-04-24T01:50:03;3.22;;;1.50;;
55212;SDS011;41083;52.932;6.674;2023-04-24T01:52:29;2.10;;;1.30;;
55212;SDS011;41083;52.932;6.674;2023-04-24T01:54:59;3.25;;;1.48;;
55212;SDS011;41083;52.932;6.674;2023-04-24T01:57:25;2.58;;;1.10;;
55212;SDS011;41083;52.932;6.674;2023-04-24T01:59:51;2.85;;;1.25;;
55212;SDS011;41083;52.932;6.674;2023-04-24T02:02:17;2.75;;;1.60;;
55212;SDS011;41083;52.932;6.674;2023-04-24T02:04:42;2.38;;;1.35;;
55212;SDS011;41083;52.932;6.674;2023-04-24T02:07:08;2.35;;;1.23;;
55212;SDS011;41083;52.932;6.674;2023-04-24T02:09:34;3.35;;;1.63;;
55212;SDS011;41083;52.932;6.674;2023-04-24T02:11:59;2.35;;;1.35;;
55212;SDS011;41083;52.932;6.674;2023-04-24T02:14:25;2.55;;;1.70;;
55212;SDS011;41083;52.932;6.674;2023-04-24T02:16:51;2.83;;;1.40;;
55212;SDS011;41083;52.932;6.674;2023-04-24T02:19:18;2.35;;;1.60;;
55212;SDS011;41083;52.932;6.674;2023-04-24T02:21:44;3.00;;;1.77;;
55212;SDS011;41083;52.932;6.674;2023-04-24T02:24:09;2.83;;;1.52;;
55212;SDS011;41083;52.932;6.674;2023-04-24T02:26:35;2.67;;;1.48;;
55212;SDS011;41083;52.932;6.674;2023-04-24T02:29:00;2.33;;;1.63;;
55212;SDS011;41083;52.932;6.674;2023-04-24T02:31:26;2.55;;;1.40;;
55212;SDS011;41083;52.932;6.674;2023-04-24T02:33:52;2.13;;;1.30;;
55212;SDS011;41083;52.932;6.674;2023-04-24T02:36:17;3.13;;;1.67;;
55212;SDS011;41083;52.932;6.674;2023-04-24T02:38:43;2.65;;;1.30;;
55212;SDS011;41083;52.932;6.674;2023-04-24T02:41:09;2.90;;;1.48;;
55212;SDS011;41083;52.932;6.674;2023-04-24T02:43:34;2.78;;;1.85;;
55212;SDS011;41083;52.932;6.674;2023-04-24T02:46:00;2.15;;;1.25;;
55212;SDS011;41083;52.932;6.674;2023-04-24T02:48:26;2.85;;;1.55;;
55212;SDS011;41083;52.932;6.674;2023-04-24T02:50:51;3.55;;;1.67;;
55212;SDS011;41083;52.932;6.674;2023-04-24T02:53:17;2.45;;;1.40;;
55212;SDS011;41083;52.932;6.674;2023-04-24T02:55:42;2.25;;;1.55;;
55212;SDS011;41083;52.932;6.674;2023-04-24T02:58:08;2.20;;;1.25;;
55212;SDS011;41083;52.932;6.674;2023-04-24T03:00:35;2.78;;;1.33;;
55212;SDS011;41083;52.932;6.674;2023-04-24T03:03:00;2.70;;;1.52;;
55212;SDS011;41083;52.932;6.674;2023-04-24T03:05:26;1.88;;;1.20;;
55212;SDS011;41083;52.932;6.674;2023-04-24T03:07:52;1.90;;;1.10;;
55212;SDS011;41083;52.932;6.674;2023-04-24T03:10:18;2.65;;;1.40;;
55212;SDS011;41083;52.932;6.674;2023-04-24T03:12:43;2.25;;;1.35;;
55212;SDS011;41083;52.932;6.674;2023-04-24T03:15:09;2.50;;;1.58;;
55212;SDS011;41083;52.932;6.674;2023-04-24T03:17:34;2.03;;;1.30;;
55212;SDS011;41083;52.932;6.674;2023-04-24T03:20:01;3.55;;;1.67;;
55212;SDS011;41083;52.932;6.674;2023-04-24T03:22:27;2.20;;;1.38;;
55212;SDS011;41083;52.932;6.674;2023-04-24T03:24:53;2.85;;;1.42;;
55212;SDS011;41083;52.932;6.674;2023-04-24T03:27:19;3.33;;;1.90;;
55212;SDS011;41083;52.932;6.674;2023-04-24T03:29:45;2.58;;;1.67;;
55212;SDS011;41083;52.932;6.674;2023-04-24T03:32:11;2.33;;;1.33;;
55212;SDS011;41083;52.932;6.674;2023-04-24T03:34:36;3.92;;;2.10;;
55212;SDS011;41083;52.932;6.674;2023-04-24T03:37:02;3.00;;;1.73;;
55212;SDS011;41083;52.932;6.674;2023-04-24T03:39:27;2.80;;;1.58;;
55212;SDS011;41083;52.932;6.674;2023-04-24T03:41:53;3.30;;;1.67;;
55212;SDS011;41083;52.932;6.674;2023-04-24T03:44:19;3.65;;;2.05;;
55212;SDS011;41083;52.932;6.674;2023-04-24T03:46:45;4.38;;;1.92;;
55212;SDS011;41083;52.932;6.674;2023-04-24T03:49:10;2.83;;;1.50;;
55212;SDS011;41083;52.932;6.674;2023-04-24T03:51:36;3.22;;;1.60;;
55212;SDS011;41083;52.932;6.674;2023-04-24T03:54:02;3.50;;;1.70;;
55212;SDS011;41083;52.932;6.674;2023-04-24T03:56:28;3.72;;;1.70;;
55212;SDS011;41083;52.932;6.674;2023-04-24T03:58:53;3.08;;;1.83;;
55212;SDS011;41083;52.932;6.674;2023-04-24T04:01:19;3.17;;;1.70;;
55212;SDS011;41083;52.932;6.674;2023-04-24T04:03:45;2.75;;;1.67;;
55212;SDS011;41083;52.932;6.674;2023-04-24T04:06:11;3.67;;;1.75;;
55212;SDS011;41083;52.932;6.674;2023-04-24T04:08:38;2.85;;;1.63;;
55212;SDS011;41083;52.932;6.674;2023-04-24T04:11:03;2.85;;;1.40;;
55212;SDS011;41083;52.932;6.674;2023-04-24T04:13:29;2.28;;;1.35;;
55212;SDS011;41083;52.932;6.674;2023-04-24T04:15:55;2.30;;;1.30;;
55212;SDS011;41083;52.932;6.674;2023-04-24T04:18:20;2.10;;;1.23;;
55212;SDS011;41083;52.932;6.674;2023-04-24T04:20:46;2.00;;;1.20;;
55212;SDS011;41083;52.932;6.674;2023-04-24T04:23:11;1.80;;;0.90;;
55212;SDS011;41083;52.932;6.674;2023-04-24T04:25:37;1.90;;;0.90;;
55212;SDS011;41083;52.932;6.674;2023-04-24T04:28:02;1.73;;;0.82;;
55212;SDS011;41083;52.932;6.674;2023-04-24T04:30:28;2.22;;;0.98;;
55212;SDS011;41083;52.932;6.674;2023-04-24T04:32:57;1.17;;;0.73;;
55212;SDS011;41083;52.932;6.674;2023-04-24T04:35:24;1.05;;;0.60;;
55212;SDS011;41083;52.932;6.674;2023-04-24T04:37:50;1.45;;;0.60;;
55212;SDS011;41083;52.932;6.674;2023-04-24T04:40:16;1.13;;;0.50;;
55212;SDS011;41083;52.932;6.674;2023-04-24T04:42:42;0.50;;;0.40;;
55212;SDS011;41083;52.932;6.674;2023-04-24T04:45:10;0.52;;;0.25;;
55212;SDS011;41083;52.932;6.674;2023-04-24T04:47:37;0.20;;;0.20;;
55212;SDS011;41083;52.932;6.674;2023-04-24T04:50:03;0.38;;;0.28;;
55212;SDS011;41083;52.932;6.674;2023-04-24T04:52:30;0.93;;;0.40;;
55212;SDS011;41083;52.932;6.674;2023-04-24T04:54:56;0.82;;;0.55;;
55212;SDS011;41083;52.932;6.674;2023-04-24T04:57:21;1.88;;;1.02;;
55212;SDS011;41083;52.932;6.674;2023-04-24T04:59:47;2.33;;;1.20;;
55212;SDS011;41083;52.932;6.674;2023-04-24T05:02:13;1.45;;;0.90;;
55212;SDS011;41083;52.932;6.674;2023-04-24T05:04:38;2.28;;;1.08;;
55212;SDS011;41083;52.932;6.674;2023-04-24T05:07:04;2.15;;;1.10;;
55212;SDS011;41083;52.932;6.674;2023-04-24T05:09:31;1.27;;;0.68;;
55212;SDS011;41083;52.932;6.674;2023-04-24T05:11:56;2.03;;;1.20;;
55212;SDS011;41083;52.932;6.674;2023-04-24T05:14:22;2.17;;;1.20;;
55212;SDS011;41083;52.932;6.674;2023-04-24T05:16:48;2.53;;;1.00;;
55212;SDS011;41083;52.932;6.674;2023-04-24T05:19:13;2.15;;;1.33;;
55212;SDS011;41083;52.932;6.674;2023-04-24T05:21:40;1.38;;;0.80;;
55212;SDS011;41083;52.932;6.674;2023-04-24T05:24:06;4.20;;;1.10;;
55212;SDS011;41083;52.932;6.674;2023-04-24T05:26:31;1.98;;;0.90;;
55212;SDS011;41083;52.932;6.674;2023-04-24T05:28:57;2.22;;;0.88;;
55212;SDS011;41083;52.932;6.674;2023-04-24T05:31:23;1.75;;;0.90;;
55212;SDS011;41083;52.932;6.674;2023-04-24T05:33:48;1.65;;;0.80;;
55212;SDS011;41083;52.932;6.674;2023-04-24T05:36:14;2.17;;;1.10;;
55212;SDS011;41083;52.932;6.674;2023-04-24T05:38:40;2.08;;;0.98;;
55212;SDS011;41083;52.932;6.674;2023-04-24T05:41:05;1.70;;;0.77;;
55212;SDS011;41083;52.932;6.674;2023-04-24T05:43:31;1.92;;;0.90;;
55212;SDS011;41083;52.932;6.674;2023-04-24T05:45:57;1.73;;;0.77;;
55212;SDS011;41083;52.932;6.674;2023-04-24T05:48:22;1.73;;;0.82;;
55212;SDS011;41083;52.932;6.674;2023-04-24T05:50:48;2.10;;;1.30;;
55212;SDS011;41083;52.932;6.674;2023-04-24T05:53:14;1.38;;;0.65;;
55212;SDS011;41083;52.932;6.674;2023-04-24T05:55:39;2.10;;;0.90;;
55212;SDS011;41083;52.932;6.674;2023-04-24T05:58:05;2.10;;;0.82;;
55212;SDS011;41083;52.932;6.674;2023-04-24T06:00:31;2.28;;;0.98;;
55212;SDS011;41083;52.932;6.674;2023-04-24T06:02:57;1.85;;;0.75;;
55212;SDS011;41083;52.932;6.674;2023-04-24T06:05:23;2.03;;;0.73;;
55212;SDS011;41083;52.932;6.674;2023-04-24T06:07:49;2.08;;;1.08;;
55212;SDS011;41083;52.932;6.674;2023-04-24T06:10:15;2.00;;;0.93;;
55212;SDS011;41083;52.932;6.674;2023-04-24T06:12:40;1.92;;;0.90;;
55212;SDS011;41083;52.932;6.674;2023-04-24T06:15:06;2.55;;;1.15;;
55212;SDS011;41083;52.932;6.674;2023-04-24T06:17:32;2.88;;;1.20;;
55212;SDS011;41083;52.932;6.674;2023-04-24T06:19:58;1.52;;;0.70;;
55212;SDS011;41083;52.932;6.674;2023-04-24T06:22:23;1.20;;;0.70;;
55212;SDS011;41083;52.932;6.674;2023-04-24T06:24:49;2.13;;;0.80;;
55212;SDS011;41083;52.932;6.674;2023-04-24T06:27:14;2.03;;;0.80;;
55212;SDS011;41083;52.932;6.674;2023-04-24T06:29:40;1.50;;;0.65;;
55212;SDS011;41083;52.932;6.674;2023-04-24T06:32:06;2.53;;;0.90;;
55212;SDS011;41083;52.932;6.674;2023-04-24T06:34:31;1.63;;;0.70;;
55212;SDS011;41083;52.932;6.674;2023-04-24T06:36:58;2.67;;;0.95;;
55212;SDS011;41083;52.932;6.674;2023-04-24T06:39:25;1.98;;;0.73;;
55212;SDS011;41083;52.932;6.674;2023-04-24T06:41:50;1.90;;;0.70;;
55212;SDS011;41083;52.932;6.674;2023-04-24T06:44:16;1.13;;;0.60;;
55212;SDS011;41083;52.932;6.674;2023-04-24T06:46:41;1.48;;;0.57;;
55212;SDS011;41083;52.932;6.674;2023-04-24T06:49:07;0.93;;;0.50;;
55212;SDS011;41083;52.932;6.674;2023-04-24T06:51:33;0.73;;;0.50;;
55212;SDS011;41083;52.932;6.674;2023-04-24T06:53:58;0.47;;;0.30;;
55212;SDS011;41083;52.932;6.674;2023-04-24T06:56:25;0.68;;;0.30;;
55212;SDS011;41083;52.932;6.674;2023-04-24T06:58:51;0.85;;;0.40;;
55212;SDS011;41083;52.932;6.674;2023-04-24T07:01:17;0.82;;;0.30;;
55212;SDS011;41083;52.932;6.674;2023-04-24T07:03:42;1.23;;;0.60;;
55212;SDS011;41083;52.932;6.674;2023-04-24T07:06:08;0.73;;;0.40;;
55212;SDS011;41083;52.932;6.674;2023-04-24T07:08:36;1.33;;;0.63;;
55212;SDS011;41083;52.932;6.674;2023-04-24T07:11:02;2.47;;;0.77;;
55212;SDS011;41083;52.932;6.674;2023-04-24T07:13:27;1.70;;;0.88;;
55212;SDS011;41083;52.932;6.674;2023-04-24T07:15:53;2.10;;;0.77;;
55212;SDS011;41083;52.932;6.674;2023-04-24T07:18:21;1.48;;;0.60;;
55212;SDS011;41083;52.932;6.674;2023-04-24T07:20:47;2.05;;;0.73;;
55212;SDS011;41083;52.932;6.674;2023-04-24T07:23:15;2.00;;;1.00;;
55212;SDS011;41083;52.932;6.674;2023-04-24T07:25:40;2.25;;;0.93;;
55212;SDS011;41083;52.932;6.674;2023-04-24T07:28:06;3.50;;;0.98;;
55212;SDS011;41083;52.932;6.674;2023-04-24T07:30:32;1.88;;;0.77;;
55212;SDS011;41083;52.932;6.674;2023-04-24T07:32:58;2.20;;;1.17;;
55212;SDS011;41083;52.932;6.674;2023-04-24T07:35:24;2.05;;;0.80;;
55212;SDS011;41083;52.932;6.674;2023-04-24T07:37:53;1.88;;;0.88;;
55212;SDS011;41083;52.932;6.674;2023-04-24T07:40:19;1.45;;;0.85;;
55212;SDS011;41083;52.932;6.674;2023-04-24T07:42:45;1.88;;;0.90;;
55212;SDS011;41083;52.932;6.674;2023-04-24T07:45:13;1.60;;;0.75;;
55212;SDS011;41083;52.932;6.674;2023-04-24T07:47:39;1.45;;;0.73;;
55212;SDS011;41083;52.932;6.674;2023-04-24T07:50:08;2.47;;;0.75;;
55212;SDS011;41083;52.932;6.674;2023-04-24T07:52:34;1.77;;;0.85;;
55212;SDS011;41083;52.932;6.674;2023-04-24T07:55:00;3.05;;;0.70;;
55212;SDS011;41083;52.932;6.674;2023-04-24T07:57:27;0.85;;;0.60;;
55212;SDS011;41083;52.932;6.674;2023-04-24T07:59:52;1.48;;;0.73;;
55212;SDS011;41083;52.932;6.674;2023-04-24T08:02:18;2.25;;;0.88;;
55212;SDS011;41083;52.932;6.674;2023-04-24T08:04:46;1.35;;;0.60;;
55212;SDS011;41083;52.932;6.674;2023-04-24T08:07:12;1.48;;;0.73;;
55212;SDS011;41083;52.932;6.674;2023-04-24T08:09:38;1.48;;;0.82;;
55212;SDS011;41083;52.932;6.674;2023-04-24T08:12:03;2.17;;;0.93;;
55212;SDS011;41083;52.932;6.674;2023-04-24T08:14:29;2.38;;;0.63;;
55212;SDS011;41083;52.932;6.674;2023-04-24T08:16:55;1.05;;;0.70;;
55212;SDS011;41083;52.932;6.674;2023-04-24T08:19:21;2.40;;;0.88;;
55212;SDS011;41083;52.932;6.674;2023-04-24T08:21:48;1.13;;;0.68;;
55212;SDS011;41083;52.932;6.674;2023-04-24T08:24:13;3.03;;;0.68;;
55212;SDS011;41083;52.932;6.674;2023-04-24T08:26:39;2.17;;;0.80;;
55212;SDS011;41083;52.932;6.674;2023-04-24T08:29:05;1.45;;;0.80;;
55212;SDS011;41083;52.932;6.674;2023-04-24T08:31:31;1.80;;;0.90;;
55212;SDS011;41083;52.932;6.674;2023-04-24T08:33:57;3.10;;;1.30;;
55212;SDS011;41083;52.932;6.674;2023-04-24T08:36:23;2.17;;;1.30;;
55212;SDS011;41083;52.932;6.674;2023-04-24T08:38:49;5.45;;;1.80;;
55212;SDS011;41083;52.932;6.674;2023-04-24T08:41:15;5.75;;;2.22;;
55212;SDS011;41083;52.932;6.674;2023-04-24T08:43:42;7.38;;;2.67;;
55212;SDS011;41083;52.932;6.674;2023-04-24T08:46:11;5.55;;;2.47;;
55212;SDS011;41083;52.932;6.674;2023-04-24T08:48:38;8.63;;;2.85;;
55212;SDS011;41083;52.932;6.674;2023-04-24T08:51:05;7.30;;;2.70;;
55212;SDS011;41083;52.932;6.674;2023-04-24T08:53:33;7.63;;;3.00;;
55212;SDS011;41083;52.932;6.674;2023-04-24T08:55:59;7.10;;;2.67;;
55212;SDS011;41083;52.932;6.674;2023-04-24T08:58:27;9.48;;;2.60;;
55212;SDS011;41083;52.932;6.674;2023-04-24T09:00:56;7.55;;;3.42;;
55212;SDS011;41083;52.932;6.674;2023-04-24T09:03:23;9.43;;;2.78;;
55212;SDS011;41083;52.932;6.674;2023-04-24T09:05:49;7.30;;;3.03;;
55212;SDS011;41083;52.932;6.674;2023-04-24T09:08:18;7.95;;;3.47;;
55212;SDS011;41083;52.932;6.674;2023-04-24T09:10:44;7.00;;;2.80;;
55212;SDS011;41083;52.932;6.674;2023-04-24T09:13:10;7.45;;;3.10;;
55212;SDS011;41083;52.932;6.674;2023-04-24T09:15:40;10.50;;;3.30;;
55212;SDS011;41083;52.932;6.674;2023-04-24T09:18:06;8.27;;;3.97;;
55212;SDS011;41083;52.932;6.674;2023-04-24T09:20:32;5.70;;;3.17;;
55212;SDS011;41083;52.932;6.674;2023-04-24T09:22:58;9.45;;;3.60;;
55212;SDS011;41083;52.932;6.674;2023-04-24T09:25:33;7.95;;;4.07;;
55212;SDS011;41083;52.932;6.674;2023-04-24T09:28:04;7.57;;;3.33;;
55212;SDS011;41083;52.932;6.674;2023-04-24T09:30:31;10.18;;;3.70;;
55212;SDS011;41083;52.932;6.674;2023-04-24T09:33:13;10.00;;;4.70;;
55212;SDS011;41083;52.932;6.674;2023-04-24T09:35:50;11.63;;;4.38;;
55212;SDS011;41083;52.932;6.674;2023-04-24T09:38:17;10.35;;;4.28;;
55212;SDS011;41083;52.932;6.674;2023-04-24T09:40:43;10.80;;;4.25;;
55212;SDS011;41083;52.932;6.674;2023-04-24T09:43:12;11.70;;;4.30;;
55212;SDS011;41083;52.932;6.674;2023-04-24T09:45:38;12.05;;;3.85;;
55212;SDS011;41083;52.932;6.674;2023-04-24T09:48:05;6.70;;;3.47;;
55212;SDS011;41083;52.932;6.674;2023-04-24T09:50:33;10.32;;;3.75;;
55212;SDS011;41083;52.932;6.674;2023-04-24T09:53:03;7.88;;;3.38;;
55212;SDS011;41083;52.932;6.674;2023-04-24T09:55:30;7.20;;;3.42;;
55212;SDS011;41083;52.932;6.674;2023-04-24T09:57:57;9.80;;;3.33;;
55212;SDS011;41083;52.932;6.674;2023-04-24T10:00:29;7.25;;;3.17;;
55212;SDS011;41083;52.932;6.674;2023-04-24T10:03:01;5.78;;;2.88;;
55212;SDS011;41083;52.932;6.674;2023-04-24T10:07:57;6.32;;;3.30;;
55212;SDS011;41083;52.932;6.674;2023-04-24T10:10:25;6.53;;;3.22;;
55212;SDS011;41083;52.932;6.674;2023-04-24T10:12:51;4.75;;;2.45;;
55212;SDS011;41083;52.932;6.674;2023-04-24T10:15:17;5.95;;;2.58;;
55212;SDS011;41083;52.932;6.674;2023-04-24T10:17:46;5.63;;;2.05;;
55212;SDS011;41083;52.932;6.674;2023-04-24T10:20:22;4.03;;;1.70;;
55212;SDS011;41083;52.932;6.674;2023-04-24T10:22:50;4.45;;;2.35;;
55212;SDS011;41083;52.932;6.674;2023-04-24T10:25:21;5.55;;;2.10;;
55212;SDS011;41083;52.932;6.674;2023-04-24T10:27:51;4.07;;;1.90;;
55212;SDS011;41083;52.932;6.674;2023-04-24T10:30:18;6.38;;;2.00;;
55212;SDS011;41083;52.932;6.674;2023-04-24T10:32:45;3.45;;;1.40;;
55212;SDS011;41083;52.932;6.674;2023-04-24T10:35:14;5.03;;;1.88;;
55212;SDS011;41083;52.932;6.674;2023-04-24T10:37:45;4.47;;;2.13;;
55212;SDS011;41083;52.932;6.674;2023-04-24T10:40:16;2.88;;;1.35;;
55212;SDS011;41083;52.932;6.674;2023-04-24T10:42:46;6.13;;;1.48;;
55212;SDS011;41083;52.932;6.674;2023-04-24T10:45:16;4.80;;;1.75;;
55212;SDS011;41083;52.932;6.674;2023-04-24T10:47:50;5.55;;;1.60;;
55212;SDS011;41083;52.932;6.674;2023-04-24T10:50:25;3.60;;;1.60;;
55212;SDS011;41083;52.932;6.674;2023-04-24T10:52:53;3.70;;;1.25;;
55212;SDS011;41083;52.932;6.674;2023-04-24T10:58:14;7.18;;;1.70;;
55212;SDS011;41083;52.932;6.674;2023-04-24T11:00:41;3.72;;;1.40;;
55212;SDS011;41083;52.932;6.674;2023-04-24T11:10:55;5.53;;;1.42;;
55212;SDS011;41083;52.932;6.674;2023-04-24T11:13:24;3.78;;;1.05;;
55212;SDS011;41083;52.932;6.674;2023-04-24T11:19:07;1.75;;;0.95;;
55212;SDS011;41083;52.932;6.674;2023-04-24T11:24:26;3.42;;;1.10;;
55212;SDS011;41083;52.932;6.674;2023-04-24T11:26:54;2.88;;;1.02;;
55212;SDS011;41083;52.932;6.674;2023-04-24T11:29:38;3.92;;;0.90;;
55212;SDS011;41083;52.932;6.674;2023-04-24T11:34:56;5.93;;;1.20;;
55212;SDS011;41083;52.932;6.674;2023-04-24T11:37:53;3.33;;;1.30;;
55212;SDS011;41083;52.932;6.674;2023-04-24T11:40:20;3.45;;;0.90;;
55212;SDS011;41083;52.932;6.674;2023-04-24T11:42:48;1.98;;;0.80;;
55212;SDS011;41083;52.932;6.674;2023-04-24T11:45:21;2.00;;;0.80;;
55212;SDS011;41083;52.932;6.674;2023-04-24T11:47:51;2.13;;;1.00;;
55212;SDS011;41083;52.932;6.674;2023-04-24T11:50:18;2.60;;;0.95;;
55212;SDS011;41083;52.932;6.674;2023-04-24T11:52:48;3.58;;;0.77;;
55212;SDS011;41083;52.932;6.674;2023-04-24T11:57:48;5.85;;;1.00;;
55212;SDS011;41083;52.932;6.674;2023-04-24T12:00:16;3.13;;;0.75;;
55212;SDS011;41083;52.932;6.674;2023-04-24T12:02:46;1.27;;;0.70;;
55212;SDS011;41083;52.932;6.674;2023-04-24T12:05:19;3.85;;;0.82;;
55212;SDS011;41083;52.932;6.674;2023-04-24T12:07:49;1.75;;;0.57;;
55212;SDS011;41083;52.932;6.674;2023-04-24T12:10:19;2.83;;;0.70;;
55212;SDS011;41083;52.932;6.674;2023-04-24T12:12:45;3.35;;;0.70;;
55212;SDS011;41083;52.932;6.674;2023-04-24T12:15:11;2.50;;;0.60;;
55212;SDS011;41083;52.932;6.674;2023-04-24T12:17:40;1.45;;;0.63;;
55212;SDS011;41083;52.932;6.674;2023-04-24T12:20:07;3.85;;;0.80;;
55212;SDS011;41083;52.932;6.674;2023-04-24T12:22:43;2.47;;;0.70;;
55212;SDS011;41083;52.932;6.674;2023-04-24T12:25:20;1.20;;;0.60;;
55212;SDS011;41083;52.932;6.674;2023-04-24T12:27:52;2.45;;;0.90;;
55212;SDS011;41083;52.932;6.674;2023-04-24T12:30:18;1.77;;;0.65;;
55212;SDS011;41083;52.932;6.674;2023-04-24T12:32:48;4.35;;;1.15;;
55212;SDS011;41083;52.932;6.674;2023-04-24T12:35:22;2.35;;;0.70;;
55212;SDS011;41083;52.932;6.674;2023-04-24T12:37:48;2.33;;;0.82;;
55212;SDS011;41083;52.932;6.674;2023-04-24T12:40:15;3.67;;;0.75;;
55212;SDS011;41083;52.932;6.674;2023-04-24T12:42:45;3.42;;;0.70;;
55212;SDS011;41083;52.932;6.674;2023-04-24T12:45:13;1.77;;;0.70;;
55212;SDS011;41083;52.932;6.674;2023-04-24T12:47:41;1.20;;;0.70;;
55212;SDS011;41083;52.932;6.674;2023-04-24T12:50:07;1.80;;;0.47;;
55212;SDS011;41083;52.932;6.674;2023-04-24T12:52:34;0.88;;;0.43;;
55212;SDS011;41083;52.932;6.674;2023-04-24T12:55:01;3.10;;;0.43;;
55212;SDS011;41083;52.932;6.674;2023-04-24T12:57:28;1.23;;;0.52;;
55212;SDS011;41083;52.932;6.674;2023-04-24T12:59:54;1.00;;;0.38;;
55212;SDS011;41083;52.932;6.674;2023-04-24T13:02:22;1.13;;;0.40;;
55212;SDS011;41083;52.932;6.674;2023-04-24T13:04:48;3.15;;;0.30;;
55212;SDS011;41083;52.932;6.674;2023-04-24T13:07:14;1.25;;;0.38;;
55212;SDS011;41083;52.932;6.674;2023-04-24T13:09:41;2.83;;;0.50;;
55212;SDS011;41083;52.932;6.674;2023-04-24T13:12:08;0.93;;;0.50;;
55212;SDS011;41083;52.932;6.674;2023-04-24T13:14:34;0.90;;;0.50;;
55212;SDS011;41083;52.932;6.674;2023-04-24T13:17:00;1.00;;;0.52;;
55212;SDS011;41083;52.932;6.674;2023-04-24T13:19:26;1.75;;;0.50;;
55212;SDS011;41083;52.932;6.674;2023-04-24T13:21:52;1.13;;;0.35;;
55212;SDS011;41083;52.932;6.674;2023-04-24T13:24:20;2.42;;;0.47;;
55212;SDS011;41083;52.932;6.674;2023-04-24T13:26:46;0.65;;;0.30;;
55212;SDS011;41083;52.932;6.674;2023-04-24T13:29:11;1.20;;;0.68;;
55212;SDS011;41083;52.932;6.674;2023-04-24T13:31:37;1.25;;;0.40;;
55212;SDS011;41083;52.932;6.674;2023-04-24T13:34:02;1.92;;;0.60;;
55212;SDS011;41083;52.932;6.674;2023-04-24T13:36:28;2.47;;;0.60;;
55212;SDS011;41083;52.932;6.674;2023-04-24T13:38:55;0.40;;;0.32;;
55212;SDS011;41083;52.932;6.674;2023-04-24T13:41:21;2.28;;;0.40;;
55212;SDS011;41083;52.932;6.674;2023-04-24T13:43:46;0.80;;;0.40;;
55212;SDS011;41083;52.932;6.674;2023-04-24T13:46:12;1.48;;;0.38;;
55212;SDS011;41083;52.932;6.674;2023-04-24T13:48:38;1.85;;;0.50;;
55212;SDS011;41083;52.932;6.674;2023-04-24T13:51:03;3.30;;;0.55;;
55212;SDS011;41083;52.932;6.674;2023-04-24T13:53:29;0.47;;;0.30;;
55212;SDS011;41083;52.932;6.674;2023-04-24T13:55:55;0.47;;;0.28;;
55212;SDS011;41083;52.932;6.674;2023-04-24T13:58:20;3.03;;;0.60;;
55212;SDS011;41083;52.932;6.674;2023-04-24T14:00:46;3.42;;;0.50;;
55212;SDS011;41083;52.932;6.674;2023-04-24T14:03:12;4.05;;;0.47;;
55212;SDS011;41083;52.932;6.674;2023-04-24T14:05:37;1.13;;;0.30;;
55212;SDS011;41083;52.932;6.674;2023-04-24T14:08:03;1.83;;;0.80;;
55212;SDS011;41083;52.932;6.674;2023-04-24T14:10:29;1.02;;;0.40;;
55212;SDS011;41083;52.932;6.674;2023-04-24T14:12:55;1.88;;;0.57;;
55212;SDS011;41083;52.932;6.674;2023-04-24T14:15:20;0.98;;;0.45;;
55212;SDS011;41083;52.932;6.674;2023-04-24T14:17:47;1.58;;;0.63;;
55212;SDS011;41083;52.932;6.674;2023-04-24T14:20:13;1.23;;;0.30;;
55212;SDS011;41083;52.932;6.674;2023-04-24T14:22:39;1.95;;;0.40;;
55212;SDS011;41083;52.932;6.674;2023-04-24T14:25:05;2.03;;;0.77;;
55212;SDS011;41083;52.932;6.674;2023-04-24T14:27:31;2.03;;;0.73;;
55212;SDS011;41083;52.932;6.674;2023-04-24T14:29:57;1.48;;;0.38;;
55212;SDS011;41083;52.932;6.674;2023-04-24T14:32:23;5.78;;;0.73;;
55212;SDS011;41083;52.932;6.674;2023-04-24T14:34:48;2.03;;;0.57;;
55212;SDS011;41083;52.932;6.674;2023-04-24T14:37:14;1.38;;;0.45;;
55212;SDS011;41083;52.932;6.674;2023-04-24T14:39:40;2.60;;;0.50;;
55212;SDS011;41083;52.932;6.674;2023-04-24T14:42:05;0.82;;;0.60;;
55212;SDS011;41083;52.932;6.674;2023-04-24T14:44:31;3.45;;;0.73;;
55212;SDS011;41083;52.932;6.674;2023-04-24T14:46:57;0.75;;;0.47;;
55212;SDS011;41083;52.932;6.674;2023-04-24T14:49:23;1.98;;;0.68;;
55212;SDS011;41083;52.932;6.674;2023-04-24T14:51:49;5.78;;;0.60;;
55212;SDS011;41083;52.932;6.674;2023-04-24T14:54:14;4.18;;;0.57;;
55212;SDS011;41083;52.932;6.674;2023-04-24T14:56:40;2.33;;;0.52;;
55212;SDS011;41083;52.932;6.674;2023-04-24T14:59:07;2.75;;;1.33;;
55212;SDS011;41083;52.932;6.674;2023-04-24T15:01:33;2.15;;;0.73;;
55212;SDS011;41083;52.932;6.674;2023-04-24T15:03:59;16.45;;;5.55;;
55212;SDS011;41083;52.932;6.674;2023-04-24T15:06:24;9.90;;;4.13;;
55212;SDS011;41083;52.932;6.674;2023-04-24T15:08:50;3.92;;;1.10;;